メインページ
METAR-TAF:

METAR-TAF

空港 :

Sandpoint Airport (Dave Wall Field)

Sandpoint, アイダホ州, アメリカ合衆国

緯度: 48-17-58N, 経度: 116-33-36W, 海抜: 648m

現時点の気象観測

当レポートは22分前の04:15(UTC)に作成
北/北東の風 11kt
気温 2°C
湿度 75%
気圧 1025 hPa
視程: 16.1km
晴天

METAR: KSZT 170415Z AUTO 03011KT 10SM CLR 02/M02 A3027 RMK AO2

時間: 20:37 (04:37 UTC)


TAF: 見つかりません

4,000以上の空港の気象観測と天気予報(METAR報とTAF報)

利用可能な観測所は地図上に黄色い丸と赤い丸で示す。

丸の上にカーソルを重ねると観測所名を参照できる。

次にクリックすると気象観測と天気予報を参照できる。

マップの切り替え:黒色「×」印の緑ボタンをクリックして拡大、「-」印の緑ボタンをクリックして縮小、緑色の三角印をクリックして隣りの地図に切り替え


METAR-TAF: